Owego, New York
Current Conditions -  °F | °C
As of 8:53 PM on Sunday 23 Nov 2014 (Local Time) from KBGM Reporting Station
Clear Clear  
Wind Chill: 40°   Ceiling: Unl
Heat Index: 46°   Visibility: 10mi
Dew Point: 28°   Wind: 13mph
Humidity: 50%   Direction: 150°SSE
Pressure: 29.94"   Gusts: NA
Location:  42.1°N, 76.26°W
Report Text: KBGM 240153Z 15011KT 10SM CLR 08/M02 A2994 RMK AO2 SLP144 T00781022
Loading
Personal Weather Stations






























Interactive Weather Map New forecast layout! Learn more

10-Day Weather Forecast

Advertisements
Track Severe Weather on mobile